This is the latest recevied weather packets stored in our database for station/object KC4GS-13. If no packets are shown the sender has not sent any weather packets the latest 1 day(s).
| Time | Temp. | Humidity | Pressure | Rain* | Wind** | Luminosity | Snow |
|---|---|---|---|---|---|---|---|
| 1778079384 | 23.33° C | 75% | 1017 hPa | 0 mm | - | 252 W/m² | - |
| 1778078778 | 22.78° C | 75% | 1016.8 hPa | 0 mm | - | 204 W/m² | - |
| 1778076662 | 21.67° C | 79% | 1017 hPa | 0 mm | - | 240 W/m² | - |
| 1778076056 | 21.11° C | 79% | 1016.8 hPa | 0 mm | - | 148 W/m² | - |
| 1778075449 | 21.11° C | 79% | 1017.1 hPa | 0 mm | - | 154 W/m² | - |
| 1778074539 | 21.11° C | 79% | 1017 hPa | 0 mm | - | 147 W/m² | - |
| 1778073933 | 21.11° C | 80% | 1017 hPa | 0 mm | - | 144 W/m² | - |
| 1778072418 | 20° C | 82% | 1016.6 hPa | 0 mm | - | 108 W/m² | - |
| 1778070907 | 18.89° C | 84% | 1016.5 hPa | 0 mm | - | 92 W/m² | - |
| 1778069696 | 18.33° C | 85% | 1016.3 hPa | 0 mm | - | 56 W/m² | - |
| 1778066671 | 16.67° C | 89% | 1016 hPa | 0 mm | - | 49 W/m² | - |
| 1778065460 | 16.11° C | 89% | 1015.6 hPa | 0 mm | - | 14 W/m² | - |
| 1778064853 | 15.56° C | 89% | 1015.5 hPa | 0 mm | - | 11 W/m² | - |
| 1778063946 | 15.56° C | 89% | 1014.9 hPa | 0 mm | - | 2 W/m² | - |
| 1778063340 | 15.56° C | 89% | 1015 hPa | 0 mm | - | 0 W/m² | - |
| 1778062735 | 15.56° C | 89% | 1014.8 hPa | 0 mm | - | 0 W/m² | - |
| 1778062431 | 15.56° C | 88% | 1015 hPa | 0 mm | - | 0 W/m² | - |
| 1778062129 | 15.56° C | 88% | 1015 hPa | 0 mm | - | 0 W/m² | - |
| 1778061525 | 15.56° C | 88% | 1014.9 hPa | 0 mm | - | 0 W/m² | - |
| 1778060919 | 15.56° C | 88% | 1015.1 hPa | 0 mm | - | 0 W/m² | - |
| 1778060618 | 15.56° C | 87% | 1015.1 hPa | 0 mm | - | 0 W/m² | - |
| 1778059408 | 16.11° C | 86% | 1015.3 hPa | 0 mm | - | 0 W/m² | - |
| 1778058802 | 16.67° C | 86% | 1015.4 hPa | 0 mm | - | 0 W/m² | - |
| 1778058197 | 16.67° C | 85% | 1015.2 hPa | 0 mm | - | 0 W/m² | - |
| 1778056680 | 16.67° C | 84% | 1015.4 hPa | 0 mm | - | 0 W/m² | - |
* Rain latest hour (hover to see other rain measurements)
** Current wind speed in m/s (hover to see current wind gust speed)